Time;durP1;ratioP1;P1;durP2;ratioP2;P2;SDS_P1;SDS_P2;PMS_P1;PMS_P2;Temp;Humidity;BMP_temperature;BMP_pressure;BME280_temperature;BME280_humidity;BME280_pressure;Samples;Min_cycle;Max_cycle;Signal;HPM_P1;HPM_P2
2023/10/03 00:02:21;;;;;;;45.20;18.88;;;19.40;99.90;;;;;;6177401;22;93120;-73
2023/10/03 00:04:48;;;;;;;48.63;19.35;;;19.40;99.90;;;;;;6153422;22;92976;-72
2023/10/03 00:07:14;;;;;;;43.85;19.60;;;19.40;99.90;;;;;;6145077;22;92249;-73
2023/10/03 00:09:40;;;;;;;46.83;18.20;;;19.50;99.90;;;;;;6143580;22;93517;-72
2023/10/03 00:12:05;;;;;;;47.15;18.92;;;19.50;99.90;;;;;;6144699;22;93618;-72
2023/10/03 00:14:31;;;;;;;48.78;17.67;;;19.50;99.90;;;;;;6147267;22;94362;-73
2023/10/03 00:16:57;;;;;;;45.78;17.98;;;19.50;99.90;;;;;;6170963;22;92524;-73
2023/10/03 00:19:22;;;;;;;43.88;18.33;;;19.50;99.90;;;;;;6170883;22;92479;-73
2023/10/03 00:21:48;;;;;;;44.85;18.00;;;19.60;99.90;;;;;;6146802;22;93604;-73
2023/10/03 00:24:16;;;;;;;42.03;16.33;;;19.60;99.90;;;;;;6147685;22;92708;-72
2023/10/03 00:26:44;;;;;;;44.30;18.00;;;19.60;99.90;;;;;;6146849;22;92340;-75
2023/10/03 00:29:13;;;;;;;42.33;16.92;;;19.60;99.90;;;;;;6174972;22;91645;-72
2023/10/03 00:31:40;;;;;;;47.05;17.95;;;19.70;99.90;;;;;;6153910;22;95269;-73
2023/10/03 00:34:05;;;;;;;44.03;18.33;;;19.70;99.90;;;;;;6147292;22;92416;-73
2023/10/03 00:36:31;;;;;;;40.90;16.50;;;19.70;99.90;;;;;;6154745;22;93912;-73
2023/10/03 00:38:57;;;;;;;41.40;17.83;;;19.70;99.90;;;;;;6175186;22;92547;-72
2023/10/03 00:41:23;;;;;;;43.85;18.13;;;19.80;99.90;;;;;;6148124;22;94924;-73
2023/10/03 00:43:52;;;;;;;39.47;16.05;;;19.80;99.90;;;;;;6132073;22;93086;-72
2023/10/03 00:46:18;;;;;;;39.40;17.10;;;19.80;99.90;;;;;;6163473;22;92182;-72
2023/10/03 00:48:47;;;;;;;41.85;15.77;;;19.90;99.90;;;;;;6175991;22;92420;-73
2023/10/03 00:51:14;;;;;;;43.50;16.80;;;19.90;99.90;;;;;;6172105;22;93398;-72
2023/10/03 00:53:40;;;;;;;36.50;16.00;;;19.90;99.90;;;;;;6146981;22;95623;-73
2023/10/03 00:56:09;;;;;;;36.45;15.50;;;19.90;99.90;;;;;;6145658;22;92535;-74
2023/10/03 00:58:36;;;;;;;42.42;16.20;;;20.00;99.90;;;;;;6168643;22;92417;-73
2023/10/03 01:01:03;;;;;;;35.70;14.95;;;19.90;99.90;;;;;;6161824;22;95152;-73
2023/10/03 01:03:37;;;;;;;37.80;15.55;;;20.00;99.90;;;;;;6146212;22;93447;-73
2023/10/03 01:06:10;;;;;;;;;;;20.10;99.90;;;;;;6148340;22;92798;-73
2023/10/03 01:09:06;;;;;;;39.53;14.97;;;20.10;99.90;;;;;;6180554;22;91968;-72
2023/10/03 01:11:36;;;;;;;33.17;14.32;;;20.10;99.90;;;;;;6146316;22;97228;-73
2023/10/03 01:14:01;;;;;;;34.75;13.48;;;20.10;99.90;;;;;;6165996;22;96014;-73
2023/10/03 01:16:45;;;;;;;35.50;14.18;;;20.20;99.70;;;;;;6155448;22;92742;-73
2023/10/03 01:19:18;;;;;;;32.60;13.43;;;20.20;99.70;;;;;;6159361;22;91993;-73
2023/10/03 01:21:46;;;;;;;;;;;20.30;99.40;;;;;;6157052;22;93656;-74
2023/10/03 01:24:20;;;;;;;33.08;12.77;;;20.30;99.30;;;;;;6174477;22;92162;-74
2023/10/03 01:26:52;;;;;;;34.92;14.20;;;20.40;99.10;;;;;;6147057;22;94214;-73
2023/10/03 01:29:26;;;;;;;28.70;12.63;;;20.40;98.80;;;;;;6147823;22;93697;-73
2023/10/03 01:31:52;;;;;;;33.47;14.07;;;20.50;98.70;;;;;;6171773;22;92701;-73
2023/10/03 01:34:18;;;;;;;32.75;13.20;;;20.50;98.80;;;;;;6159912;22;92411;-72
2023/10/03 01:36:47;;;;;;;30.40;13.25;;;20.60;98.40;;;;;;6147686;22;92475;-72
2023/10/03 01:39:14;;;;;;;30.98;12.45;;;20.60;98.20;;;;;;6150656;22;93775;-72
2023/10/03 01:41:43;;;;;;;32.25;12.93;;;20.60;98.00;;;;;;6177603;22;93138;-73
2023/10/03 01:44:08;;;;;;;27.95;12.35;;;20.70;98.20;;;;;;6148932;22;93006;-73
2023/10/03 01:46:34;;;;;;;34.25;13.93;;;20.70;98.10;;;;;;6146276;22;92127;-74
2023/10/03 01:49:00;;;;;;;33.42;12.55;;;20.60;98.00;;;;;;6159687;22;92539;-73
2023/10/03 01:51:26;;;;;;;31.20;12.20;;;20.70;98.00;;;;;;6168085;22;96975;-73
2023/10/03 01:53:55;;;;;;;33.75;12.55;;;20.70;97.80;;;;;;6146988;22;94925;-73
2023/10/03 01:56:21;;;;;;;30.75;13.10;;;20.70;97.60;;;;;;6171233;22;92438;-72
2023/10/03 01:58:47;;;;;;;32.97;12.32;;;20.80;97.80;;;;;;6147136;22;92375;-73
2023/10/03 02:01:13;;;;;;;28.13;12.65;;;20.80;97.70;;;;;;6148434;22;96339;-73
2023/10/03 02:03:39;;;;;;;26.67;12.02;;;20.80;97.70;;;;;;6148766;22;96247;-73
2023/10/03 02:06:07;;;;;;;28.20;12.35;;;20.80;97.60;;;;;;6148816;22;92753;-72
2023/10/03 02:08:34;;;;;;;31.05;12.63;;;20.80;97.40;;;;;;6151026;22;91410;-73
2023/10/03 02:10:59;;;;;;;26.63;11.40;;;20.90;97.40;;;;;;6150351;22;94014;-73
2023/10/03 02:13:25;;;;;;;30.05;12.32;;;20.90;97.40;;;;;;6167765;22;94667;-74
2023/10/03 02:15:53;;;;;;;27.85;11.65;;;20.90;97.40;;;;;;6164685;22;93346;-74
2023/10/03 02:18:20;;;;;;;24.33;10.90;;;20.90;97.10;;;;;;6148452;22;92135;-75
2023/10/03 02:21:09;;;;;;;33.28;11.68;;;20.90;97.00;;;;;;6149586;22;96174;-76
2023/10/03 02:23:34;;;;;;;27.75;11.90;;;21.00;96.90;;;;;;6138737;22;98302;-72
2023/10/03 02:26:10;;;;;;;29.52;12.20;;;21.00;96.90;;;;;;6150835;22;92545;-74
2023/10/03 02:28:36;;;;;;;27.33;11.52;;;21.10;96.80;;;;;;6149761;22;92732;-73
2023/10/03 02:31:07;;;;;;;27.02;10.63;;;21.10;96.70;;;;;;6149303;22;92652;-73
2023/10/03 02:33:32;;;;;;;24.10;11.02;;;21.10;96.40;;;;;;6149642;22;93445;-74
2023/10/03 02:35:58;;;;;;;24.75;10.98;;;21.20;96.40;;;;;;6147577;22;92572;-75
2023/10/03 02:38:30;;;;;;;25.98;11.68;;;21.20;96.40;;;;;;6150547;22;92521;-72
2023/10/03 02:41:00;;;;;;;27.88;11.35;;;21.20;96.40;;;;;;6148295;22;94621;-72
2023/10/03 02:43:34;;;;;;;28.83;11.57;;;21.20;96.50;;;;;;6148885;22;94188;-72
2023/10/03 02:45:59;;;;;;;27.23;10.60;;;21.10;96.50;;;;;;6149536;22;92580;-72
2023/10/03 02:48:25;;;;;;;29.85;10.38;;;21.10;96.60;;;;;;6149269;22;92511;-73
2023/10/03 02:50:51;;;;;;;27.98;11.00;;;21.10;96.40;;;;;;6148157;22;96755;-73
2023/10/03 02:53:19;;;;;;;27.13;12.13;;;21.10;96.50;;;;;;6148689;22;92705;-73
2023/10/03 02:55:49;;;;;;;27.63;11.00;;;21.10;96.60;;;;;;6149003;22;92440;-73
2023/10/03 02:58:16;;;;;;;26.75;11.50;;;21.10;96.50;;;;;;6148290;22;92087;-72
2023/10/03 03:00:46;;;;;;;27.35;10.77;;;21.10;96.70;;;;;;6149058;22;92675;-73
2023/10/03 03:03:14;;;;;;;23.98;10.07;;;21.10;96.60;;;;;;6148879;22;93288;-72
2023/10/03 03:05:41;;;;;;;23.70;10.25;;;21.10;96.60;;;;;;6149502;22;93496;-72
2023/10/03 03:13:39;;;;;;;22.77;9.55;;;21.10;96.80;;;;;;6155390;22;94145;-71
2023/10/03 03:16:06;;;;;;;28.58;10.80;;;21.10;97.00;;;;;;6146030;22;92195;-73
2023/10/03 03:21:22;;;;;;;23.48;9.68;;;21.00;96.90;;;;;;6141101;22;94172;-73
2023/10/03 03:26:47;;;;;;;30.48;9.73;;;21.00;97.10;;;;;;6128928;22;92132;-73
2023/10/03 03:29:35;;;;;;;25.13;9.93;;;21.00;97.20;;;;;;6147093;22;92115;-73
2023/10/03 03:32:01;;;;;;;22.10;9.73;;;21.00;97.20;;;;;;6144756;22;97900;-73
2023/10/03 03:34:28;;;;;;;20.88;9.02;;;20.90;97.20;;;;;;6147203;22;93750;-73
2023/10/03 03:36:55;;;;;;;25.48;9.75;;;20.90;97.50;;;;;;6146058;22;92748;-73
2023/10/03 03:39:28;;;;;;;21.00;9.27;;;20.90;97.80;;;;;;6147500;22;92871;-74
2023/10/03 03:41:54;;;;;;;25.75;9.90;;;20.80;97.70;;;;;;6146383;22;96872;-73
2023/10/03 03:44:21;;;;;;;25.05;10.07;;;20.80;97.90;;;;;;6148282;22;92823;-73
2023/10/03 03:46:46;;;;;;;23.83;9.85;;;20.70;98.10;;;;;;6147489;22;92559;-73
2023/10/03 03:49:18;;;;;;;21.75;8.88;;;20.70;98.40;;;;;;6146800;22;91318;-73
2023/10/03 03:51:44;;;;;;;20.70;9.13;;;20.70;98.60;;;;;;6146906;22;94052;-74
2023/10/03 03:54:12;;;;;;;19.60;9.10;;;20.70;98.70;;;;;;6145368;22;95953;-75
2023/10/03 03:56:39;;;;;;;21.83;9.18;;;20.60;98.80;;;;;;6146759;22;93358;-73
2023/10/03 03:59:06;;;;;;;18.67;9.32;;;20.60;99.00;;;;;;6147091;22;92438;-74
2023/10/03 04:01:33;;;;;;;20.13;8.95;;;20.50;99.00;;;;;;6160588;22;95451;-73
2023/10/03 04:04:00;;;;;;;21.52;8.55;;;20.50;99.00;;;;;;6161741;22;96234;-72
2023/10/03 04:06:26;;;;;;;19.48;8.70;;;20.50;99.20;;;;;;6147215;22;92749;-72
2023/10/03 04:08:51;;;;;;;18.70;7.97;;;20.50;99.50;;;;;;6171430;22;92772;-73
2023/10/03 04:11:17;;;;;;;18.88;7.90;;;20.50;99.80;;;;;;6147221;22;93139;-73
2023/10/03 04:13:49;;;;;;;22.35;8.55;;;20.40;99.80;;;;;;6147517;22;92307;-74
2023/10/03 04:16:25;;;;;;;23.73;8.75;;;20.50;99.80;;;;;;6145319;22;92510;-74
2023/10/03 04:18:51;;;;;;;24.52;8.38;;;20.40;99.90;;;;;;6145944;22;92318;-73
2023/10/03 04:21:20;;;;;;;18.63;8.27;;;20.40;99.90;;;;;;6146117;22;93661;-72
2023/10/03 04:23:47;;;;;;;21.65;8.13;;;20.40;99.90;;;;;;6148163;22;94183;-72
2023/10/03 04:26:13;;;;;;;15.45;7.90;;;20.40;99.90;;;;;;6146645;22;92658;-72
2023/10/03 04:28:39;;;;;;;22.27;8.90;;;20.40;99.90;;;;;;6169552;22;92520;-73
2023/10/03 04:31:05;;;;;;;20.80;8.27;;;20.30;99.90;;;;;;6162124;22;92695;-73
2023/10/03 04:33:31;;;;;;;18.15;7.60;;;20.40;99.90;;;;;;6147270;22;93645;-74
2023/10/03 04:35:58;;;;;;;21.70;8.15;;;20.30;99.90;;;;;;6148247;22;92581;-72
2023/10/03 04:38:23;;;;;;;19.38;8.50;;;20.30;99.90;;;;;;6177654;22;91895;-72
2023/10/03 04:40:49;;;;;;;17.55;8.13;;;20.30;99.90;;;;;;6151365;22;96367;-74
2023/10/03 04:43:15;;;;;;;22.17;9.18;;;20.20;99.90;;;;;;6147732;22;92807;-73
2023/10/03 04:45:42;;;;;;;18.83;8.45;;;20.20;99.90;;;;;;6146663;22;94142;-75
2023/10/03 04:48:10;;;;;;;19.95;8.40;;;20.20;99.90;;;;;;6149156;22;92153;-73
2023/10/03 04:50:37;;;;;;;21.77;8.15;;;20.10;99.90;;;;;;6175368;22;93048;-73
2023/10/03 04:53:03;;;;;;;19.30;8.25;;;20.10;99.90;;;;;;6148773;22;93322;-75
2023/10/03 04:55:29;;;;;;;19.17;8.23;;;20.00;99.90;;;;;;6171035;22;93212;-74
2023/10/03 04:57:55;;;;;;;20.73;7.82;;;20.00;99.90;;;;;;6158985;22;92737;-75
2023/10/03 05:00:23;;;;;;;15.45;8.20;;;20.00;99.90;;;;;;6194651;22;97050;-75
2023/10/03 05:02:51;;;;;;;16.90;7.15;;;19.90;99.90;;;;;;6146254;22;96189;-73
2023/10/03 05:05:21;;;;;;;14.73;7.55;;;19.90;99.90;;;;;;6146864;22;92505;-74
2023/10/03 05:07:48;;;;;;;13.90;6.28;;;19.90;99.90;;;;;;6147065;22;93065;-73
2023/10/03 05:10:14;;;;;;;11.40;6.05;;;19.80;99.90;;;;;;6163290;22;94158;-73
2023/10/03 05:12:40;;;;;;;11.02;6.20;;;19.80;99.90;;;;;;6191079;22;97104;-75
2023/10/03 05:15:07;;;;;;;16.38;5.85;;;19.70;99.90;;;;;;6145715;22;92708;-75
2023/10/03 05:17:34;;;;;;;11.90;5.13;;;19.70;99.90;;;;;;6147193;22;92349;-74
2023/10/03 05:19:59;;;;;;;17.65;6.25;;;19.70;99.90;;;;;;6147426;22;94304;-72
2023/10/03 05:22:25;;;;;;;12.00;4.47;;;19.60;99.90;;;;;;6146827;22;92539;-73
2023/10/03 05:24:52;;;;;;;11.45;5.07;;;19.60;99.90;;;;;;6172071;22;92572;-74
2023/10/03 05:27:18;;;;;;;11.93;4.75;;;19.60;99.90;;;;;;6152854;22;91453;-72
2023/10/03 05:29:44;;;;;;;10.68;5.20;;;19.50;99.90;;;;;;6177367;22;96324;-73
2023/10/03 05:32:10;;;;;;;14.05;5.10;;;19.50;99.90;;;;;;6179314;22;92775;-72
2023/10/03 05:34:35;;;;;;;8.13;4.95;;;19.40;99.90;;;;;;6154802;22;93613;-73
2023/10/03 05:37:02;;;;;;;10.43;5.15;;;19.40;99.90;;;;;;6148414;22;92218;-72
2023/10/03 05:39:28;;;;;;;11.40;5.32;;;19.30;99.90;;;;;;6148037;22;93089;-72
2023/10/03 05:41:57;;;;;;;10.68;5.40;;;19.30;99.90;;;;;;6148661;22;92731;-74
2023/10/03 05:44:25;;;;;;;11.52;5.72;;;19.30;99.90;;;;;;6178826;22;92496;-72
2023/10/03 05:46:55;;;;;;;9.60;5.07;;;19.20;99.90;;;;;;6176508;22;92842;-74
2023/10/03 05:49:30;;;;;;;11.65;5.40;;;19.20;99.90;;;;;;6147738;22;93980;-73
2023/10/03 05:51:55;;;;;;;11.35;4.88;;;19.20;99.90;;;;;;6148385;22;93239;-72
2023/10/03 05:54:25;;;;;;;11.32;5.30;;;19.20;99.90;;;;;;6146814;22;92861;-73
2023/10/03 05:56:52;;;;;;;9.90;4.53;;;19.20;99.90;;;;;;6147781;22;92914;-74
2023/10/03 05:59:21;;;;;;;9.27;5.20;;;19.20;99.90;;;;;;6147230;22;102022;-73
2023/10/03 06:01:50;;;;;;;11.23;6.15;;;19.20;99.90;;;;;;6148203;22;93688;-73
2023/10/03 06:04:16;;;;;;;14.88;5.68;;;19.10;99.90;;;;;;6147820;22;92611;-72
2023/10/03 06:06:43;;;;;;;11.70;5.30;;;19.10;99.90;;;;;;6170982;22;92271;-74
2023/10/03 06:09:12;;;;;;;19.40;6.18;;;19.10;99.90;;;;;;6149794;22;92681;-72
2023/10/03 06:11:38;;;;;;;12.38;6.03;;;19.10;99.90;;;;;;6177452;22;93531;-73
2023/10/03 06:14:07;;;;;;;14.45;5.72;;;19.00;99.90;;;;;;6177761;22;92519;-73
2023/10/03 06:16:33;;;;;;;16.00;6.15;;;19.00;99.90;;;;;;6178133;22;91827;-73
2023/10/03 06:18:58;;;;;;;11.13;5.63;;;19.00;99.90;;;;;;6187468;22;96386;-72
2023/10/03 06:21:24;;;;;;;12.73;5.55;;;19.00;99.90;;;;;;6146523;22;92699;-71
2023/10/03 06:23:50;;;;;;;14.60;5.85;;;19.00;99.90;;;;;;6147653;22;93417;-72
2023/10/03 06:26:20;;;;;;;15.60;6.75;;;19.00;99.90;;;;;;6147483;22;92747;-73
2023/10/03 06:28:48;;;;;;;13.18;5.53;;;19.00;99.90;;;;;;6169991;22;92718;-72
2023/10/03 06:31:14;;;;;;;16.83;6.20;;;19.00;99.90;;;;;;6159416;22;93590;-73
2023/10/03 06:33:42;;;;;;;14.60;5.95;;;19.00;99.90;;;;;;6147251;22;92544;-73
2023/10/03 06:36:08;;;;;;;14.38;6.25;;;19.00;99.90;;;;;;6174279;22;92791;-72
2023/10/03 06:38:34;;;;;;;12.25;5.80;;;19.10;99.90;;;;;;6177730;22;92489;-72
2023/10/03 06:41:00;;;;;;;11.30;6.13;;;19.10;99.90;;;;;;6150970;22;92866;-72
2023/10/03 06:43:26;;;;;;;12.32;5.93;;;19.10;99.90;;;;;;6147021;22;92741;-74
2023/10/03 06:45:51;;;;;;;14.63;5.93;;;19.10;99.90;;;;;;6146420;22;92534;-73
2023/10/03 06:48:17;;;;;;;13.23;5.75;;;19.00;99.90;;;;;;6148483;22;94093;-72
2023/10/03 06:50:44;;;;;;;12.27;6.40;;;19.10;99.90;;;;;;6149091;22;94160;-72
2023/10/03 06:53:09;;;;;;;15.68;6.18;;;19.00;99.90;;;;;;6150006;22;92430;-71
2023/10/03 06:55:36;;;;;;;12.57;7.45;;;19.00;99.90;;;;;;6170501;22;92240;-72
2023/10/03 06:58:05;;;;;;;9.88;6.40;;;19.00;99.90;;;;;;6164622;22;93754;-72
2023/10/03 07:00:32;;;;;;;12.90;5.70;;;19.00;99.90;;;;;;6172068;22;95728;-72
2023/10/03 07:02:58;;;;;;;16.35;7.30;;;18.90;99.90;;;;;;6148968;22;92675;-74
2023/10/03 07:05:24;;;;;;;14.25;6.05;;;18.90;99.90;;;;;;6179618;22;91657;-72
2023/10/03 07:07:50;;;;;;;15.70;6.20;;;18.90;99.90;;;;;;6178910;22;93221;-73
2023/10/03 07:10:16;;;;;;;14.60;6.30;;;18.80;99.90;;;;;;6179013;22;93846;-73
2023/10/03 07:12:42;;;;;;;12.25;5.72;;;18.80;99.90;;;;;;6177267;22;93764;-73
2023/10/03 07:15:08;;;;;;;17.17;5.93;;;18.80;99.90;;;;;;6179301;22;92578;-72
2023/10/03 07:17:37;;;;;;;13.57;6.43;;;18.80;99.90;;;;;;6203929;22;96184;-72
2023/10/03 07:20:08;;;;;;;12.25;5.97;;;18.80;99.90;;;;;;6174350;22;96174;-73
2023/10/03 07:22:34;;;;;;;11.07;6.25;;;18.80;99.90;;;;;;6147898;22;92625;-74
2023/10/03 07:25:00;;;;;;;15.07;6.30;;;18.80;99.90;;;;;;6144979;22;92514;-75
2023/10/03 07:27:26;;;;;;;15.27;6.00;;;18.80;99.90;;;;;;6152020;22;93611;-74
2023/10/03 07:29:52;;;;;;;13.57;6.45;;;18.80;99.90;;;;;;6177038;22;93465;-74
2023/10/03 07:32:18;;;;;;;12.73;6.40;;;18.80;99.90;;;;;;6146179;22;92687;-72
2023/10/03 07:34:46;;;;;;;12.10;6.40;;;18.80;99.90;;;;;;6147625;22;92361;-73
2023/10/03 07:37:12;;;;;;;15.95;6.32;;;18.70;99.90;;;;;;6146762;22;94058;-74
2023/10/03 07:39:40;;;;;;;12.82;5.47;;;18.70;99.90;;;;;;6147710;22;94220;-73
2023/10/03 07:42:06;;;;;;;13.77;6.25;;;18.70;99.90;;;;;;6151173;22;92511;-74
2023/10/03 07:44:32;;;;;;;15.20;6.72;;;18.70;99.90;;;;;;6179112;22;92583;-73
2023/10/03 07:46:58;;;;;;;15.13;6.18;;;18.70;99.90;;;;;;6135210;22;92675;-72
2023/10/03 07:49:24;;;;;;;14.90;6.18;;;18.70;99.90;;;;;;6145417;22;96232;-74
2023/10/03 07:51:53;;;;;;;10.00;5.32;;;18.80;99.90;;;;;;6158975;22;92607;-74
2023/10/03 07:54:20;;;;;;;11.20;5.80;;;18.80;99.90;;;;;;6172704;22;91557;-73
2023/10/03 07:56:45;;;;;;;9.70;5.60;;;18.80;99.90;;;;;;6147418;22;96074;-74
2023/10/03 07:59:11;;;;;;;14.88;5.70;;;18.80;99.90;;;;;;6147402;22;92734;-73
2023/10/03 08:01:38;;;;;;;16.88;5.50;;;18.80;99.90;;;;;;6170138;22;93435;-74
2023/10/03 08:04:08;;;;;;;13.10;5.57;;;18.80;99.90;;;;;;6164472;22;92705;-73
2023/10/03 08:06:34;;;;;;;9.02;5.55;;;18.90;99.90;;;;;;6146802;22;93984;-73
2023/10/03 08:09:08;;;;;;;10.70;5.75;;;18.90;99.90;;;;;;6174470;22;96149;-73
2023/10/03 08:11:35;;;;;;;13.02;5.80;;;18.90;99.90;;;;;;6180217;22;92526;-76
2023/10/03 08:14:17;;;;;;;13.73;6.60;;;18.90;99.90;;;;;;6152981;22;92207;-77
2023/10/03 08:16:45;;;;;;;11.60;6.55;;;18.90;99.90;;;;;;6145982;22;96130;-77
2023/10/03 08:19:21;;;;;;;13.00;6.75;;;18.90;99.90;;;;;;6164719;22;93033;-77
2023/10/03 08:21:49;;;;;;;15.40;6.45;;;18.80;99.90;;;;;;6169773;22;92717;-76
2023/10/03 08:24:19;;;;;;;10.18;6.30;;;18.80;99.90;;;;;;6173305;22;92552;-76
2023/10/03 08:26:50;;;;;;;11.25;6.22;;;18.80;99.90;;;;;;6149538;22;93786;-76
2023/10/03 08:29:25;;;;;;;14.65;6.75;;;18.80;99.90;;;;;;6148181;22;97117;-76
2023/10/03 08:31:57;;;;;;;14.07;7.10;;;18.80;99.90;;;;;;6149951;22;92231;-76
2023/10/03 08:34:30;;;;;;;12.03;6.30;;;18.80;99.90;;;;;;6148181;22;92746;-76
2023/10/03 08:37:00;;;;;;;12.45;5.90;;;18.90;99.90;;;;;;6147849;22;93223;-76
2023/10/03 08:39:26;;;;;;;10.85;5.50;;;18.90;99.90;;;;;;6155531;22;92745;-75
2023/10/03 08:41:58;;;;;;;12.18;5.78;;;18.90;99.90;;;;;;6179857;22;92433;-76
2023/10/03 08:44:24;;;;;;;11.38;5.63;;;19.00;99.90;;;;;;6181240;22;92008;-76
2023/10/03 08:46:57;;;;;;;7.93;5.38;;;19.00;99.90;;;;;;6154317;22;94828;-76
2023/10/03 08:49:38;;;;;;;10.30;5.18;;;19.10;99.90;;;;;;6148925;22;93295;-76
2023/10/03 08:52:09;;;;;;;13.18;5.55;;;19.10;99.90;;;;;;6163214;22;93423;-75
2023/10/03 08:54:37;;;;;;;8.48;5.05;;;19.20;99.90;;;;;;6171701;22;92312;-75
2023/10/03 08:57:09;;;;;;;10.05;5.07;;;19.20;99.90;;;;;;6151017;22;94059;-75
2023/10/03 08:59:40;;;;;;;11.02;4.93;;;19.20;99.90;;;;;;6179744;22;92742;-75
2023/10/03 09:02:14;;;;;;;12.05;5.30;;;19.20;99.90;;;;;;6191321;22;92606;-75
2023/10/03 09:04:40;;;;;;;21.33;6.05;;;19.30;99.90;;;;;;6181100;22;92167;-76
2023/10/03 09:07:09;;;;;;;11.05;5.22;;;19.30;99.90;;;;;;6149080;22;93932;-75
2023/10/03 09:09:41;;;;;;;10.52;4.95;;;19.30;99.90;;;;;;6149944;22;93325;-75
2023/10/03 09:12:08;;;;;;;11.07;5.25;;;19.40;99.90;;;;;;6151938;22;92374;-76
2023/10/03 09:14:36;;;;;;;10.15;4.53;;;19.40;99.90;;;;;;6180780;22;92499;-74
2023/10/03 09:17:03;;;;;;;9.25;4.30;;;19.40;99.90;;;;;;6151800;22;93733;-74
2023/10/03 09:19:44;;;;;;;13.70;5.75;;;19.40;99.90;;;;;;6149528;22;94260;-75
2023/10/03 09:22:10;;;;;;;11.73;4.65;;;19.50;99.90;;;;;;6149375;22;92590;-75
2023/10/03 09:24:55;;;;;;;10.43;4.95;;;19.50;99.90;;;;;;6158338;22;92376;-75
2023/10/03 09:27:29;;;;;;;8.95;4.38;;;19.50;99.90;;;;;;6171533;22;92799;-77
2023/10/03 09:29:58;;;;;;;9.18;4.53;;;19.50;99.90;;;;;;6171278;22;96178;-76
2023/10/03 09:32:24;;;;;;;8.40;3.47;;;19.50;99.90;;;;;;6147718;22;92177;-77
2023/10/03 09:34:57;;;;;;;6.50;3.42;;;19.30;99.90;;;;;;6174303;22;92883;-78
2023/10/03 09:37:29;;;;;;;5.73;2.70;;;19.10;99.90;;;;;;6159968;22;93919;-80
2023/10/03 09:40:16;;;;;;;5.22;2.33;;;18.80;99.90;;;;;;6148303;22;92851;-78
2023/10/03 09:42:48;;;;;;;6.68;2.63;;;18.60;99.90;;;;;;6158006;22;93242;-78
2023/10/03 09:45:18;;;;;;;7.70;2.77;;;18.40;99.90;;;;;;6171610;22;92483;-80
2023/10/03 09:47:45;;;;;;;11.82;3.22;;;18.30;99.90;;;;;;6147843;22;93759;-78
2023/10/03 09:50:13;;;;;;;8.18;2.67;;;18.10;99.90;;;;;;6145656;22;96044;-77
2023/10/03 09:52:44;;;;;;;6.90;2.47;;;18.00;99.90;;;;;;6130987;22;92575;-77
2023/10/03 09:55:22;;;;;;;6.47;3.10;;;17.90;99.90;;;;;;6164295;22;92914;-77
2023/10/03 09:57:52;;;;;;;5.57;2.13;;;17.90;99.90;;;;;;6166414;22;92778;-77
2023/10/03 10:00:40;;;;;;;4.13;1.75;;;17.90;99.90;;;;;;6173239;22;95939;-77
2023/10/03 10:03:19;;;;;;;10.80;2.00;;;17.90;99.90;;;;;;6149590;22;92643;-77
2023/10/03 10:06:12;;;;;;;5.82;1.42;;;17.90;99.90;;;;;;6149935;22;93090;-77
2023/10/03 10:08:41;;;;;;;5.93;2.10;;;17.80;99.90;;;;;;6148964;22;99503;-78
2023/10/03 10:11:09;;;;;;;3.80;1.35;;;17.80;99.90;;;;;;6147471;22;94785;-76
2023/10/03 10:13:45;;;;;;;6.40;1.35;;;17.80;99.90;;;;;;6147985;22;92629;-77
2023/10/03 10:18:45;;;;;;;6.28;1.40;;;17.80;99.90;;;;;;6168587;22;92504;-77
2023/10/03 10:21:20;;;;;;;4.38;1.38;;;17.80;99.90;;;;;;6147784;22;93769;-77
2023/10/03 10:24:20;;;;;;;5.15;1.40;;;17.90;99.90;;;;;;6150908;22;92563;-81
2023/10/03 10:26:48;;;;;;;4.78;1.33;;;17.90;99.90;;;;;;6181029;22;91895;-77
2023/10/03 10:29:19;;;;;;;6.93;1.35;;;18.00;99.90;;;;;;6174023;22;96412;-78
2023/10/03 10:31:49;;;;;;;4.93;1.10;;;18.00;99.90;;;;;;6149635;22;92634;-78
2023/10/03 10:34:21;;;;;;;2.08;1.00;;;18.10;99.90;;;;;;6148872;22;93391;-77
2023/10/03 10:36:55;;;;;;;4.03;1.10;;;18.10;99.90;;;;;;6159008;22;92566;-78
2023/10/03 10:39:24;;;;;;;2.63;1.02;;;18.10;99.90;;;;;;6173373;22;92756;-78
2023/10/03 10:42:14;;;;;;;4.35;1.02;;;18.10;99.90;;;;;;6151181;22;93214;-77
2023/10/03 10:45:13;;;;;;;4.30;1.10;;;18.20;99.90;;;;;;6150943;22;92390;-78
2023/10/03 10:47:50;;;;;;;5.90;1.67;;;18.20;99.90;;;;;;6179225;22;92475;-77
2023/10/03 10:50:25;;;;;;;3.13;0.80;;;18.20;99.90;;;;;;6148266;22;93307;-77
2023/10/03 10:52:54;;;;;;;3.72;1.05;;;18.20;99.90;;;;;;6147310;22;95205;-79
2023/10/03 10:55:22;;;;;;;7.40;1.25;;;18.20;99.90;;;;;;6166600;22;92499;-77
2023/10/03 10:58:11;;;;;;;3.65;1.13;;;18.20;99.90;;;;;;6165181;22;92579;-77
2023/10/03 11:00:38;;;;;;;1.98;0.77;;;18.20;99.90;;;;;;6127588;22;97690;-77
2023/10/03 11:03:04;;;;;;;1.35;0.68;;;18.20;99.90;;;;;;6150503;22;93765;-76
2023/10/03 11:06:00;;;;;;;7.25;0.80;;;18.20;99.90;;;;;;6177910;22;92481;-77
2023/10/03 11:08:26;;;;;;;3.63;1.00;;;18.10;99.90;;;;;;6142286;22;93927;-78
2023/10/03 11:10:53;;;;;;;3.47;0.90;;;18.10;99.90;;;;;;6173295;22;93753;-77
2023/10/03 11:13:20;;;;;;;5.85;0.82;;;18.00;99.90;;;;;;6161408;22;93560;-78
2023/10/03 11:15:52;;;;;;;22.05;3.90;;;18.00;99.90;;;;;;6148139;22;92342;-78
2023/10/03 11:18:28;;;;;;;1.05;0.30;;;18.00;99.90;;;;;;6153462;22;91851;-78
2023/10/03 11:20:55;;;;;;;2.88;0.52;;;18.10;99.90;;;;;;6178849;22;93167;-76
2023/10/03 11:23:23;;;;;;;1.55;0.82;;;18.20;99.90;;;;;;6150549;22;92809;-78
2023/10/03 11:25:59;;;;;;;5.88;1.02;;;18.20;99.90;;;;;;6148749;22;93159;-77
2023/10/03 11:28:28;;;;;;;1.73;0.90;;;18.20;99.90;;;;;;6168057;22;92017;-77
2023/10/03 11:31:05;;;;;;;2.45;0.50;;;18.20;99.90;;;;;;6166184;22;93281;-77
2023/10/03 11:33:51;;;;;;;1.95;0.60;;;18.10;99.90;;;;;;6149307;22;93153;-76
2023/10/03 11:36:16;;;;;;;5.68;0.82;;;18.20;99.90;;;;;;6155303;22;92257;-76
2023/10/03 11:38:50;;;;;;;1.63;0.43;;;18.20;99.90;;;;;;6180292;22;92507;-76
2023/10/03 11:41:31;;;;;;;;;;;18.10;99.90;;;;;;6174595;22;96505;-76
2023/10/03 11:43:57;;;;;;;0.73;0.47;;;18.10;99.90;;;;;;6152403;22;91883;-77
2023/10/03 11:46:23;;;;;;;5.28;0.70;;;18.10;99.90;;;;;;6174559;22;92369;-77
2023/10/03 11:48:58;;;;;;;5.22;0.50;;;18.10;99.90;;;;;;6162130;22;92303;-77
2023/10/03 11:51:25;;;;;;;7.03;1.08;;;18.30;99.90;;;;;;6172451;22;97499;-77
2023/10/03 11:53:53;;;;;;;2.40;0.73;;;18.60;99.90;;;;;;6149755;22;94158;-76
2023/10/03 11:56:18;;;;;;;2.40;0.70;;;18.80;99.90;;;;;;6148814;22;92680;-77
2023/10/03 11:58:44;;;;;;;2.25;0.90;;;19.00;98.80;;;;;;6147433;22;92709;-76
2023/10/03 12:01:10;;;;;;;1.40;0.70;;;19.00;98.40;;;;;;6148072;22;93814;-75
2023/10/03 12:03:37;;;;;;;3.60;0.98;;;19.00;98.10;;;;;;6148103;22;93254;-75
2023/10/03 12:06:04;;;;;;;2.28;0.95;;;19.00;97.80;;;;;;6145951;22;93602;-76
2023/10/03 12:08:32;;;;;;;3.83;0.80;;;19.20;98.30;;;;;;6146891;22;92198;-77
2023/10/03 12:10:58;;;;;;;1.58;0.70;;;19.30;97.50;;;;;;6144872;22;93700;-77
2023/10/03 12:13:23;;;;;;;2.60;0.55;;;19.50;95.70;;;;;;6145522;22;95021;-76
2023/10/03 12:15:51;;;;;;;1.17;0.52;;;19.60;95.60;;;;;;6147232;22;93346;-76
2023/10/03 12:18:16;;;;;;;3.10;0.77;;;19.70;94.90;;;;;;6150828;22;92227;-76
2023/10/03 12:20:44;;;;;;;3.20;0.77;;;20.00;93.80;;;;;;6178957;22;93376;-77
2023/10/03 12:23:10;;;;;;;4.70;0.85;;;20.00;94.30;;;;;;6148147;22;94666;-77
2023/10/03 12:25:36;;;;;;;2.05;0.90;;;20.00;93.60;;;;;;6145917;22;92697;-76
2023/10/03 12:28:01;;;;;;;3.25;1.25;;;19.90;93.40;;;;;;6144574;22;92696;-77
2023/10/03 12:30:27;;;;;;;3.60;0.95;;;19.90;93.90;;;;;;6146778;22;92331;-76
2023/10/03 12:32:56;;;;;;;2.00;0.70;;;20.00;93.50;;;;;;6146526;22;95956;-75
2023/10/03 12:35:21;;;;;;;4.43;0.90;;;20.20;93.80;;;;;;6146996;22;92364;-78
2023/10/03 12:37:48;;;;;;;5.28;0.73;;;20.30;92.60;;;;;;6172331;22;92410;-77
2023/10/03 12:40:16;;;;;;;3.88;0.73;;;20.30;92.40;;;;;;6160512;22;94067;-75
2023/10/03 12:42:43;;;;;;;3.30;0.70;;;20.30;92.80;;;;;;6145667;22;96984;-77
2023/10/03 12:45:15;;;;;;;4.22;1.10;;;20.40;92.00;;;;;;6147701;22;92195;-76
2023/10/03 12:47:46;;;;;;;2.25;0.70;;;20.40;91.60;;;;;;6148982;22;92649;-76
2023/10/03 12:50:13;;;;;;;5.10;0.70;;;20.50;91.60;;;;;;6177376;22;92659;-76
2023/10/03 12:52:40;;;;;;;6.47;1.25;;;20.40;90.50;;;;;;6155813;22;92525;-76
2023/10/03 12:55:07;;;;;;;3.72;0.80;;;20.30;91.30;;;;;;6148063;22;92439;-76
2023/10/03 12:57:32;;;;;;;3.35;1.05;;;20.20;91.60;;;;;;6155954;22;91722;-76
2023/10/03 12:59:58;;;;;;;4.18;0.82;;;20.20;92.40;;;;;;6176456;22;100510;-77
2023/10/03 13:02:23;;;;;;;2.25;0.88;;;20.10;91.80;;;;;;6179141;22;92823;-77